Time;durP1;ratioP1;P1;durP2;ratioP2;P2;SDS_P1;SDS_P2;PMS_P1;PMS_P2;Temp;Humidity;BMP_temperature;BMP_pressure;BME280_temperature;BME280_humidity;BME280_pressure;Samples;Min_cycle;Max_cycle;Signal;HPM_P1;HPM_P2
2021/10/19 00:00:09;;;;;;;18.98;11.57;;;;;;;14.11;88.67;101890.63;5073790;28;20025;-60
2021/10/19 00:02:36;;;;;;;16.08;10.85;;;;;;;14.11;88.78;101894.16;5074364;28;20059;-62
2021/10/19 00:05:05;;;;;;;18.35;11.65;;;;;;;14.12;88.90;101885.25;5074805;28;20044;-62
2021/10/19 00:07:30;;;;;;;16.67;11.57;;;;;;;14.14;88.78;101879.84;5074537;28;20479;-61
2021/10/19 00:09:56;;;;;;;14.88;10.80;;;;;;;14.18;88.98;101889.41;5074327;28;20028;-62
2021/10/19 00:12:22;;;;;;;16.00;11.13;;;;;;;14.20;88.78;101884.91;5073689;28;20025;-63
2021/10/19 00:14:47;;;;;;;15.02;10.43;;;;;;;14.19;89.13;101893.81;5074409;28;20035;-61
2021/10/19 00:17:13;;;;;;;17.45;10.45;;;;;;;14.20;89.17;101887.56;5074093;28;20037;-61
2021/10/19 00:19:39;;;;;;;15.05;10.85;;;;;;;14.20;89.35;101890.22;5073192;28;20020;-62
2021/10/19 00:22:05;;;;;;;15.40;11.10;;;;;;;14.19;89.46;101892.00;5073624;28;20025;-62
2021/10/19 00:24:31;;;;;;;16.40;9.82;;;;;;;14.21;89.39;101882.16;5073751;28;20024;-62
2021/10/19 00:26:56;;;;;;;14.80;10.30;;;;;;;14.24;89.39;101870.50;5073856;28;20060;-61
2021/10/19 00:29:21;;;;;;;16.80;11.15;;;;;;;14.23;89.59;101874.09;5074185;28;20104;-62
2021/10/19 00:31:46;;;;;;;14.70;9.65;;;;;;;14.28;89.60;101866.78;5073485;28;20038;-62
2021/10/19 00:34:12;;;;;;;16.20;11.18;;;;;;;14.29;89.72;101867.66;5073634;28;20032;-62
2021/10/19 00:36:37;;;;;;;16.60;11.52;;;;;;;14.24;90.62;101870.50;5073954;28;20111;-62
2021/10/19 00:39:03;;;;;;;16.30;11.00;;;;;;;14.18;91.33;101876.09;5073852;28;20025;-61
2021/10/19 00:41:29;;;;;;;17.15;12.00;;;;;;;14.09;93.00;101872.03;5073470;28;20064;-61
2021/10/19 00:43:55;;;;;;;20.20;13.00;;;;;;;14.01;93.32;101863.53;5073200;28;20123;-61
2021/10/19 00:46:20;;;;;;;21.50;13.43;;;;;;;13.93;94.47;101869.19;5073680;28;20028;-60
2021/10/19 00:48:46;;;;;;;22.42;14.43;;;;;;;13.85;95.37;101861.50;5073499;28;20024;-61
2021/10/19 00:51:17;;;;;;;22.50;14.35;;;;;;;13.79;96.06;101864.44;5073956;28;20047;-61
2021/10/19 00:53:43;;;;;;;23.10;14.13;;;;;;;13.75;96.80;101854.84;5073178;28;20031;-61
2021/10/19 00:56:09;;;;;;;19.95;13.30;;;;;;;13.73;97.11;101857.59;5073445;28;20101;-61
2021/10/19 00:58:37;;;;;;;25.70;16.75;;;;;;;13.67;97.60;101847.19;5073700;28;20056;-61
2021/10/19 01:01:03;;;;;;;25.75;15.48;;;;;;;13.65;98.37;101850.84;5073371;28;20028;-61
2021/10/19 01:03:29;;;;;;;25.10;16.27;;;;;;;13.63;98.53;101845.56;5072768;28;20029;-61
2021/10/19 01:05:54;;;;;;;27.02;17.83;;;;;;;13.59;98.77;101839.53;5073074;28;20029;-62
2021/10/19 01:08:20;;;;;;;28.08;17.45;;;;;;;13.57;99.21;101824.56;5073440;28;20093;-61
2021/10/19 01:10:45;;;;;;;28.88;17.40;;;;;;;13.57;99.72;101828.06;5072888;28;20460;-61
2021/10/19 01:13:11;;;;;;;30.98;17.55;;;;;;;13.57;99.67;101814.75;5073066;28;20025;-61
2021/10/19 01:15:36;;;;;;;27.17;17.77;;;;;;;13.58;100.00;101819.16;5072618;28;20408;-61
2021/10/19 01:18:03;;;;;;;28.75;17.25;;;;;;;13.61;100.00;101826.16;5072509;28;20025;-61
2021/10/19 01:20:29;;;;;;;28.67;17.70;;;;;;;13.60;100.00;101824.41;5072890;28;20028;-61
2021/10/19 01:22:56;;;;;;;28.95;17.85;;;;;;;13.62;100.00;101817.25;5073168;28;20054;-61
2021/10/19 01:25:23;;;;;;;29.77;18.23;;;;;;;13.62;100.00;101819.91;5072570;28;20150;-61
2021/10/19 01:27:53;;;;;;;30.95;18.42;;;;;;;13.63;100.00;101808.28;5072484;28;20055;-61
2021/10/19 01:30:19;;;;;;;33.38;18.67;;;;;;;13.65;100.00;101808.25;5072854;28;20487;-61
2021/10/19 01:32:44;;;;;;;33.90;18.45;;;;;;;13.63;100.00;101796.78;5072704;28;20116;-61
2021/10/19 01:35:11;;;;;;;35.20;19.50;;;;;;;13.65;100.00;101795.81;5072082;28;20021;-61
2021/10/19 01:37:37;;;;;;;33.90;19.17;;;;;;;13.67;100.00;101793.94;5072512;28;20029;-61
2021/10/19 01:40:11;;;;;;;33.55;20.20;;;;;;;13.69;100.00;101792.06;5072756;28;20090;-62
2021/10/19 01:42:37;;;;;;;28.50;18.08;;;;;;;13.69;100.00;101801.88;5072836;28;20028;-61
2021/10/19 01:45:03;;;;;;;31.15;19.23;;;;;;;13.68;100.00;101787.72;5072759;28;20020;-61
2021/10/19 01:47:29;;;;;;;33.58;19.27;;;;;;;13.68;100.00;101793.03;5072362;28;20036;-62
2021/10/19 01:49:55;;;;;;;27.90;18.08;;;;;;;13.73;100.00;101792.81;5071880;28;20051;-61
2021/10/19 01:52:20;;;;;;;32.63;18.65;;;;;;;13.72;100.00;101789.28;5072763;28;20095;-61
2021/10/19 01:54:46;;;;;;;30.05;19.02;;;;;;;13.75;100.00;101791.81;5072672;28;20499;-62
2021/10/19 01:57:11;;;;;;;29.58;17.27;;;;;;;13.77;100.00;101792.63;5072282;28;20396;-60
2021/10/19 01:59:36;;;;;;;30.35;18.13;;;;;;;13.77;100.00;101784.63;5071934;28;20470;-61
2021/10/19 02:02:02;;;;;;;32.42;18.90;;;;;;;13.78;100.00;101777.50;5072558;28;20039;-61
2021/10/19 02:04:27;;;;;;;28.52;17.98;;;;;;;13.78;100.00;101769.53;5072160;28;20016;-61
2021/10/19 02:06:52;;;;;;;27.05;17.92;;;;;;;13.82;100.00;101755.13;5072219;28;20032;-61
2021/10/19 02:09:18;;;;;;;31.67;19.42;;;;;;;13.84;100.00;101758.59;5072188;28;20020;-61
2021/10/19 02:11:43;;;;;;;27.88;18.95;;;;;;;13.86;100.00;101772.72;5072463;28;20063;-61
2021/10/19 02:14:08;;;;;;;30.75;20.20;;;;;;;13.89;100.00;101764.59;5072368;28;20052;-61
2021/10/19 02:16:33;;;;;;;29.50;19.55;;;;;;;13.89;100.00;101755.75;5072278;28;20111;-61
2021/10/19 02:18:59;;;;;;;29.85;19.92;;;;;;;13.90;100.00;101766.34;5072048;28;20111;-61
2021/10/19 02:21:24;;;;;;;33.33;20.75;;;;;;;13.94;100.00;101764.41;5071809;28;20035;-61
2021/10/19 02:23:49;;;;;;;32.38;20.80;;;;;;;13.97;100.00;101763.41;5072432;28;20025;-61
2021/10/19 02:26:15;;;;;;;30.48;20.67;;;;;;;13.99;100.00;101764.19;5066642;28;20158;-61
2021/10/19 02:28:40;;;;;;;33.15;21.27;;;;;;;14.02;100.00;101753.41;5050460;28;20025;-61
2021/10/19 02:31:06;;;;;;;34.33;22.05;;;;;;;14.02;100.00;101756.06;5050059;28;20033;-61
2021/10/19 02:33:32;;;;;;;36.20;22.90;;;;;;;14.03;100.00;101757.81;5041483;28;20038;-61
2021/10/19 02:35:58;;;;;;;39.60;24.00;;;;;;;14.02;100.00;101758.72;5031986;28;20029;-61
2021/10/19 02:38:23;;;;;;;33.80;21.92;;;;;;;14.06;100.00;101761.16;5032236;28;20102;-61
2021/10/19 02:40:48;;;;;;;37.65;22.80;;;;;;;14.04;100.00;101756.84;5033238;28;20112;-61
2021/10/19 02:43:15;;;;;;;35.20;22.63;;;;;;;14.07;100.00;101756.72;5033810;28;20041;-61
2021/10/19 02:45:40;;;;;;;33.40;22.83;;;;;;;14.08;100.00;101747.81;5035658;28;20372;-61
2021/10/19 02:48:05;;;;;;;36.97;23.38;;;;;;;14.06;100.00;101739.00;5035998;28;20116;-62
2021/10/19 02:50:31;;;;;;;35.10;22.80;;;;;;;14.05;100.00;101743.50;5036785;28;20428;-61
2021/10/19 02:52:57;;;;;;;32.47;21.73;;;;;;;14.05;100.00;101731.94;5036707;28;20026;-61
2021/10/19 02:55:23;;;;;;;36.30;22.50;;;;;;;14.05;100.00;101722.19;5036148;28;20483;-61
2021/10/19 02:57:48;;;;;;;35.28;22.67;;;;;;;14.07;100.00;101712.31;5035822;28;20097;-61
2021/10/19 03:00:14;;;;;;;34.80;22.75;;;;;;;14.05;100.00;101711.53;5035414;28;20032;-61
2021/10/19 03:02:40;;;;;;;36.95;22.77;;;;;;;14.03;100.00;101705.41;5036561;28;20180;-61
2021/10/19 03:05:06;;;;;;;34.03;21.90;;;;;;;14.04;100.00;101696.47;5035899;28;20088;-61
2021/10/19 03:07:31;;;;;;;37.40;22.02;;;;;;;14.02;100.00;101701.00;5034990;28;20473;-61
2021/10/19 03:09:56;;;;;;;36.40;22.52;;;;;;;14.03;100.00;101708.06;5035617;28;20034;-61
2021/10/19 03:12:22;;;;;;;36.63;22.85;;;;;;;14.03;100.00;101699.22;5036569;28;20034;-62
2021/10/19 03:14:47;;;;;;;40.55;23.38;;;;;;;14.02;100.00;101701.00;5035084;28;20033;-62
2021/10/19 03:17:12;;;;;;;40.35;23.00;;;;;;;14.03;100.00;101694.75;5035451;28;20026;-62
2021/10/19 03:19:38;;;;;;;35.00;21.30;;;;;;;14.05;100.00;101694.66;5035718;28;20037;-62
2021/10/19 03:22:03;;;;;;;34.55;22.13;;;;;;;14.06;100.00;101696.41;5036115;28;20563;-61
2021/10/19 03:24:28;;;;;;;32.58;21.38;;;;;;;14.07;100.00;101692.81;5036070;28;20053;-61
2021/10/19 03:26:54;;;;;;;36.08;22.48;;;;;;;14.06;100.00;101686.59;5045769;28;20076;-61
2021/10/19 03:29:19;;;;;;;34.15;21.65;;;;;;;14.09;100.00;101701.56;5055288;28;20108;-61
2021/10/19 03:31:45;;;;;;;36.97;23.30;;;;;;;14.05;100.00;101692.88;5055579;28;20408;-61
2021/10/19 03:34:10;;;;;;;36.95;22.13;;;;;;;14.06;100.00;101705.25;5055396;28;20045;-61
2021/10/19 03:36:36;;;;;;;35.45;22.50;;;;;;;14.06;100.00;101702.59;5055832;28;20021;-62
2021/10/19 03:39:01;;;;;;;35.97;22.48;;;;;;;14.09;100.00;101701.56;5054663;28;20029;-62
2021/10/19 03:41:26;;;;;;;36.22;22.02;;;;;;;14.12;100.00;101703.22;5054893;28;20024;-61
2021/10/19 03:43:52;;;;;;;37.33;22.80;;;;;;;14.07;100.00;101709.63;5056120;28;20025;-61
2021/10/19 03:46:17;;;;;;;33.88;22.45;;;;;;;14.08;100.00;101714.03;5055666;28;20362;-61
2021/10/19 03:48:42;;;;;;;35.70;21.95;;;;;;;14.07;100.00;101709.63;5054665;28;20032;-61
2021/10/19 03:51:07;;;;;;;38.67;21.80;;;;;;;14.09;100.00;101714.88;5054998;28;20021;-61
2021/10/19 03:53:33;;;;;;;37.83;22.90;;;;;;;14.11;100.00;101720.19;5055233;28;20017;-61
2021/10/19 03:55:58;;;;;;;36.90;21.77;;;;;;;14.09;100.00;101704.25;5055301;28;20115;-60
2021/10/19 03:58:23;;;;;;;37.08;21.85;;;;;;;14.10;100.00;101713.97;5054745;28;20381;-62
2021/10/19 04:00:49;;;;;;;38.53;22.52;;;;;;;14.08;100.00;101700.72;5054603;28;20355;-61
2021/10/19 04:03:15;;;;;;;36.53;21.17;;;;;;;14.07;100.00;101708.78;5054767;28;20048;-61
2021/10/19 04:05:41;;;;;;;36.63;20.75;;;;;;;14.11;100.00;101705.03;5055511;28;20116;-61
2021/10/19 04:08:06;;;;;;;36.03;21.70;;;;;;;14.07;100.00;101701.66;5054888;28;20443;-62
2021/10/19 04:10:32;;;;;;;35.25;20.27;;;;;;;14.07;100.00;101708.78;5054061;28;20029;-62
2021/10/19 04:12:57;;;;;;;34.22;20.23;;;;;;;14.07;100.00;101717.63;5054403;28;20025;-61
2021/10/19 04:15:22;;;;;;;35.58;20.45;;;;;;;14.08;100.00;101716.69;5055115;28;20029;-61
2021/10/19 04:17:48;;;;;;;37.03;20.52;;;;;;;14.08;100.00;101703.38;5053703;28;20116;-61
2021/10/19 04:20:13;;;;;;;35.42;19.70;;;;;;;14.09;100.00;101707.78;5053603;28;20025;-60
2021/10/19 04:22:39;;;;;;;39.22;20.58;;;;;;;14.09;100.00;101712.22;5054197;28;20029;-61
2021/10/19 04:25:05;;;;;;;36.47;20.65;;;;;;;14.12;100.00;101713.88;5053772;28;20384;-61
2021/10/19 04:27:30;;;;;;;32.42;19.58;;;;;;;14.12;100.00;101716.56;5057131;28;20049;-61
2021/10/19 04:29:56;;;;;;;32.95;19.38;;;;;;;14.12;100.00;101717.44;5053405;28;20500;-61
2021/10/19 04:32:21;;;;;;;34.22;19.33;;;;;;;14.15;100.00;101721.75;5053991;28;20366;-60
2021/10/19 04:34:47;;;;;;;35.92;18.67;;;;;;;14.16;100.00;101724.34;5053944;28;20388;-61
2021/10/19 04:37:12;;;;;;;32.75;18.58;;;;;;;14.16;100.00;101711.03;5053204;28;20037;-61
2021/10/19 04:39:37;;;;;;;32.25;18.58;;;;;;;14.19;100.00;101716.19;5053210;28;20029;-61
2021/10/19 04:42:03;;;;;;;32.10;18.10;;;;;;;14.20;100.00;101714.41;5053828;28;20538;-62
2021/10/19 04:44:29;;;;;;;30.30;17.52;;;;;;;14.22;100.00;101705.41;5053724;28;20477;-61
2021/10/19 04:46:54;;;;;;;31.17;17.73;;;;;;;14.23;100.00;101698.28;5053256;28;20024;-61
2021/10/19 04:49:20;;;;;;;29.02;16.70;;;;;;;14.23;100.00;101695.63;5053228;28;20025;-62
2021/10/19 04:51:45;;;;;;;31.42;18.27;;;;;;;14.21;100.00;101692.19;5053302;28;20065;-62
2021/10/19 04:54:11;;;;;;;29.42;18.30;;;;;;;14.21;100.00;101690.38;5053511;28;20053;-62
2021/10/19 04:56:36;;;;;;;31.08;18.13;;;;;;;14.25;100.00;101689.28;5053187;28;20109;-61
2021/10/19 04:59:01;;;;;;;33.00;18.77;;;;;;;14.25;100.00;101686.63;5052660;28;20039;-62
2021/10/19 05:01:27;;;;;;;35.20;18.88;;;;;;;14.28;100.00;101693.59;5053040;28;20108;-62
2021/10/19 05:03:53;;;;;;;33.60;18.83;;;;;;;14.29;100.00;101676.69;5053146;28;20021;-62
2021/10/19 05:06:18;;;;;;;35.75;19.88;;;;;;;14.27;100.00;101670.56;5052149;28;20086;-62
2021/10/19 05:08:44;;;;;;;38.40;20.27;;;;;;;14.31;100.00;101671.28;5052816;28;20033;-61
2021/10/19 05:11:09;;;;;;;38.08;20.80;;;;;;;14.34;100.00;101671.16;5052280;28;20020;-61
2021/10/19 05:13:35;;;;;;;40.90;21.50;;;;;;;14.34;100.00;101676.47;5056288;28;20040;-61
2021/10/19 05:16:00;;;;;;;39.65;21.45;;;;;;;14.35;100.00;101668.41;5053146;28;20028;-62
2021/10/19 05:18:26;;;;;;;43.97;22.52;;;;;;;14.37;100.00;101682.53;5053041;28;20017;-62
2021/10/19 05:20:51;;;;;;;41.00;22.40;;;;;;;14.38;100.00;101665.59;5052496;28;20112;-62
2021/10/19 05:23:16;;;;;;;42.28;22.60;;;;;;;14.39;100.00;101669.13;5053135;28;20056;-62
2021/10/19 05:25:42;;;;;;;40.53;22.27;;;;;;;14.39;100.00;101671.78;5051842;28;20036;-62
2021/10/19 05:28:08;;;;;;;45.67;23.25;;;;;;;14.40;100.00;101669.03;5052271;28;20036;-62
2021/10/19 05:30:33;;;;;;;42.88;23.33;;;;;;;14.41;100.00;101660.13;5051694;28;20116;-62
2021/10/19 05:32:58;;;;;;;43.70;23.80;;;;;;;14.42;100.00;101668.97;5052635;28;20036;-62
2021/10/19 05:35:24;;;;;;;46.90;24.45;;;;;;;14.43;100.00;101662.72;5052428;28;20426;-62
2021/10/19 05:37:49;;;;;;;41.08;23.45;;;;;;;14.42;100.00;101667.19;5034954;28;20037;-62
2021/10/19 05:40:15;;;;;;;44.78;22.40;;;;;;;14.42;100.00;101675.19;5051959;28;20037;-62
2021/10/19 05:42:40;;;;;;;46.03;23.02;;;;;;;14.47;100.00;101674.09;5052531;28;20024;-63
2021/10/19 05:45:06;;;;;;;45.53;23.73;;;;;;;14.47;100.00;101676.75;5052438;28;20484;-63
2021/10/19 05:47:31;;;;;;;42.55;22.95;;;;;;;14.46;100.00;101678.53;5052126;28;20035;-60
2021/10/19 05:49:56;;;;;;;44.97;24.40;;;;;;;14.51;100.00;101673.00;5052242;28;20025;-62
2021/10/19 05:52:22;;;;;;;43.40;24.00;;;;;;;14.52;100.00;101674.72;5052581;28;20033;-62
2021/10/19 05:54:47;;;;;;;43.67;24.13;;;;;;;14.51;100.00;101667.66;5052336;28;20028;-62
2021/10/19 05:57:12;;;;;;;43.28;24.25;;;;;;;14.54;100.00;101672.84;5052083;28;20036;-61
2021/10/19 05:59:38;;;;;;;47.70;25.48;;;;;;;14.53;100.00;101668.47;5051987;28;20035;-62
2021/10/19 06:02:03;;;;;;;49.03;25.30;;;;;;;14.56;100.00;101666.50;5051486;28;20087;-61
2021/10/19 06:04:29;;;;;;;46.78;25.27;;;;;;;14.58;100.00;101658.44;5051683;28;20399;-62
2021/10/19 06:06:57;;;;;;;45.13;25.27;;;;;;;14.57;100.00;101648.72;5052299;28;20465;-61
2021/10/19 06:09:23;;;;;;;48.50;26.23;;;;;;;14.57;100.00;101654.06;5051904;28;20028;-62
2021/10/19 06:11:49;;;;;;;49.47;25.73;;;;;;;14.58;100.00;101661.13;5051302;28;20424;-62
2021/10/19 06:14:15;;;;;;;55.72;27.80;;;;;;;14.61;100.00;101665.44;5051323;28;20112;-62
2021/10/19 06:16:40;;;;;;;54.03;26.45;;;;;;;14.61;100.00;101654.78;5051532;28;20056;-60
2021/10/19 06:19:06;;;;;;;50.85;26.27;;;;;;;14.63;100.00;101663.53;5054790;28;20066;-61
2021/10/19 06:21:31;;;;;;;56.58;27.38;;;;;;;14.66;100.00;101661.63;5055527;28;20033;-62
2021/10/19 06:23:56;;;;;;;49.42;27.30;;;;;;;14.68;100.00;101669.53;5056465;28;20068;-62
2021/10/19 06:26:21;;;;;;;62.78;28.30;;;;;;;14.69;100.00;101668.59;5062229;28;20076;-62
2021/10/19 06:28:48;;;;;;;57.38;28.27;;;;;;;14.70;100.00;101667.66;5047381;28;20402;-62
2021/10/19 06:31:13;;;;;;;55.85;27.35;;;;;;;14.70;100.00;101662.34;5056208;28;20491;-61
2021/10/19 06:33:38;;;;;;;53.13;26.42;;;;;;;14.70;100.00;101665.84;5058403;28;20124;-62
2021/10/19 06:36:05;;;;;;;57.42;27.45;;;;;;;14.73;100.00;101659.50;5076537;28;20130;-61
2021/10/19 06:38:30;;;;;;;52.80;27.48;;;;;;;14.73;100.00;101665.72;5076676;28;20071;-60
2021/10/19 06:40:56;;;;;;;52.53;26.88;;;;;;;14.76;100.00;101664.72;5076077;28;20099;-62
2021/10/19 06:43:21;;;;;;;53.30;27.02;;;;;;;14.75;100.00;101666.50;5062516;28;20029;-62
2021/10/19 06:45:46;;;;;;;47.33;26.33;;;;;;;14.81;100.00;101669.78;5055970;28;20385;-62
2021/10/19 06:48:12;;;;;;;51.25;26.15;;;;;;;14.78;100.00;101661.97;5055438;28;20029;-61
2021/10/19 06:50:37;;;;;;;48.15;25.75;;;;;;;14.79;100.00;101661.03;5055165;28;20017;-60
2021/10/19 06:53:03;;;;;;;53.55;26.60;;;;;;;14.78;100.00;101672.63;5055958;28;20025;-60
2021/10/19 06:55:28;;;;;;;52.22;25.60;;;;;;;14.81;100.00;101677.78;5075427;28;20040;-61
2021/10/19 06:57:55;;;;;;;47.13;24.02;;;;;;;14.85;100.00;101682.06;5060604;28;20036;-62
2021/10/19 07:00:20;;;;;;;47.97;24.08;;;;;;;14.87;100.00;101678.38;5055616;28;20033;-61
2021/10/19 07:02:46;;;;;;;52.33;24.83;;;;;;;14.84;100.00;101683.00;5055789;28;20082;-62
2021/10/19 07:05:11;;;;;;;41.85;23.10;;;;;;;14.87;100.00;101674.81;5055410;28;20465;-61
2021/10/19 07:07:39;;;;;;;43.15;23.15;;;;;;;14.86;100.00;101676.66;5067651;28;20036;-60
2021/10/19 07:10:05;;;;;;;45.50;23.80;;;;;;;14.86;100.00;101671.31;5035787;28;20029;-59
2021/10/19 07:12:30;;;;;;;49.88;23.70;;;;;;;14.90;100.00;101680.88;5041962;28;20025;-60
2021/10/19 07:14:56;;;;;;;44.45;22.83;;;;;;;14.89;100.00;101673.81;5055499;28;20491;-60
2021/10/19 07:17:21;;;;;;;47.47;24.30;;;;;;;14.96;100.00;101673.50;5055267;28;20032;-62
2021/10/19 07:19:47;;;;;;;44.05;23.67;;;;;;;14.99;100.00;101673.38;5055423;28;20021;-60
2021/10/19 07:22:13;;;;;;;46.08;23.10;;;;;;;15.01;100.00;101680.34;5064620;28;20017;-60
2021/10/19 07:24:39;;;;;;;47.10;23.30;;;;;;;15.05;100.00;101676.59;5075673;28;20045;-61
2021/10/19 07:27:04;;;;;;;39.88;21.73;;;;;;;15.05;100.00;101671.25;5074745;28;20408;-61
2021/10/19 07:29:29;;;;;;;44.40;22.38;;;;;;;15.05;100.00;101681.03;5074223;28;20354;-61
2021/10/19 07:31:55;;;;;;;46.10;23.05;;;;;;;15.06;100.00;101674.78;5075223;28;20487;-61
2021/10/19 07:34:20;;;;;;;42.90;22.30;;;;;;;15.11;100.00;101685.22;5075210;28;20040;-60
2021/10/19 07:36:46;;;;;;;38.35;20.27;;;;;;;15.14;100.00;101677.06;5068897;28;20024;-63
2021/10/19 07:39:12;;;;;;;36.85;21.35;;;;;;;15.15;100.00;101682.31;5063771;28;20068;-60
2021/10/19 07:41:37;;;;;;;36.15;19.38;;;;;;;15.18;100.00;101678.63;5054760;28;20118;-60
2021/10/19 07:44:09;;;;;;;39.75;20.15;;;;;;;15.15;100.00;101674.31;5053711;28;20057;-59
2021/10/19 07:46:35;;;;;;;34.28;19.70;;;;;;;15.22;100.00;101677.53;5055348;28;20532;-60
2021/10/19 07:49:00;;;;;;;37.22;20.30;;;;;;;15.21;100.00;101676.66;5053754;28;20111;-59
2021/10/19 07:51:25;;;;;;;34.78;18.50;;;;;;;15.21;100.00;101670.47;5054417;28;20116;-61
2021/10/19 07:53:51;;;;;;;29.27;17.08;;;;;;;15.22;100.00;101677.53;5054232;28;20024;-59
2021/10/19 07:56:17;;;;;;;32.67;17.90;;;;;;;15.24;100.00;101671.19;5052517;28;20094;-60
2021/10/19 07:58:43;;;;;;;35.45;18.02;;;;;;;15.28;100.00;101668.34;5061501;28;20358;-61
2021/10/19 08:01:08;;;;;;;29.77;17.27;;;;;;;15.29;100.00;101668.25;5054362;28;20035;-60
2021/10/19 08:03:34;;;;;;;32.25;18.15;;;;;;;15.31;100.00;101666.38;5055977;28;20016;-62
2021/10/19 08:06:00;;;;;;;35.05;18.05;;;;;;;15.33;100.00;101666.31;5054675;28;20044;-59
2021/10/19 08:08:25;;;;;;;28.85;17.80;;;;;;;15.34;100.00;101660.88;5055267;28;20029;-60
2021/10/19 08:10:51;;;;;;;27.90;16.63;;;;;;;15.39;100.00;101664.16;5053767;28;20086;-59
2021/10/19 08:13:18;;;;;;;29.67;17.80;;;;;;;15.39;100.00;101666.84;5052951;28;20024;-58
2021/10/19 08:15:45;;;;;;;38.22;17.90;;;;;;;15.40;100.00;101673.06;5052571;28;20025;-59
2021/10/19 08:18:11;;;;;;;29.73;16.65;;;;;;;15.40;100.00;101662.38;5054112;28;20013;-61
2021/10/19 08:20:37;;;;;;;29.48;17.27;;;;;;;15.45;100.00;101662.13;5054184;28;20048;-59
2021/10/19 08:23:03;;;;;;;30.10;17.70;;;;;;;15.49;100.00;101666.38;5053993;28;20100;-59
2021/10/19 08:25:28;;;;;;;29.20;18.23;;;;;;;15.53;100.00;101668.78;5046674;28;20282;-59
2021/10/19 08:27:54;;;;;;;31.60;18.23;;;;;;;15.55;100.00;101664.25;5038407;28;20508;-60
2021/10/19 08:30:20;;;;;;;36.15;19.73;;;;;;;15.54;100.00;101673.19;5037992;28;20033;-58
2021/10/19 08:32:47;;;;;;;39.97;20.60;;;;;;;15.60;100.00;101676.47;5033940;28;20580;-59
2021/10/19 08:35:13;;;;;;;33.88;19.25;;;;;;;15.60;100.00;101669.34;5034353;28;20025;-60
2021/10/19 08:37:40;;;;;;;41.42;21.90;;;;;;;15.65;100.00;101663.75;5034376;28;20393;-60
2021/10/19 08:40:07;;;;;;;35.22;19.85;;;;;;;15.69;100.00;101673.31;5033383;28;20033;-59
2021/10/19 08:42:32;;;;;;;41.05;22.73;;;;;;;15.71;100.00;101661.59;5033196;28;20076;-59
2021/10/19 08:44:58;;;;;;;39.17;22.10;;;;;;;15.70;100.00;101662.59;5033831;28;20026;-59
2021/10/19 08:47:24;;;;;;;36.60;20.58;;;;;;;15.76;100.00;101664.03;5033431;28;20029;-62
2021/10/19 08:49:50;;;;;;;37.03;21.60;;;;;;;15.82;100.00;101658.41;5034081;28;20030;-58
2021/10/19 08:52:15;;;;;;;38.05;21.40;;;;;;;15.83;100.00;101660.16;5033619;28;20024;-62
2021/10/19 08:54:41;;;;;;;38.55;21.73;;;;;;;15.85;100.00;101666.25;5033563;28;20462;-60
2021/10/19 08:57:13;;;;;;;32.90;20.83;;;;;;;15.86;100.00;101651.09;5033771;28;20037;-60
2021/10/19 08:59:45;;;;;;;37.20;21.38;;;;;;;15.89;100.00;101656.25;5033595;28;20133;-60
2021/10/19 09:02:11;;;;;;;35.22;22.02;;;;;;;15.91;100.00;101658.84;5032442;28;20415;-60
2021/10/19 09:04:37;;;;;;;36.60;22.27;;;;;;;15.87;100.00;101659.03;5033829;28;20021;-59
2021/10/19 09:07:02;;;;;;;40.25;22.70;;;;;;;15.88;100.00;101662.53;5034107;28;20071;-59
2021/10/19 09:09:28;;;;;;;41.15;24.92;;;;;;;15.92;100.00;101666.81;5040624;28;20013;-60
2021/10/19 09:11:57;;;;;;;45.63;26.27;;;;;;;15.94;100.00;101675.56;5039333;28;20022;-59
2021/10/19 09:14:40;;;;;;;42.10;26.23;;;;;;;15.99;100.00;101675.34;5029915;28;20025;-59
2021/10/19 09:17:06;;;;;;;44.50;27.15;;;;;;;15.97;100.00;101664.75;5041480;28;20116;-60
2021/10/19 09:19:35;;;;;;;44.67;28.65;;;;;;;16.01;100.00;101676.09;5045398;28;20109;-61
2021/10/19 09:22:06;;;;;;;52.50;28.75;;;;;;;16.02;100.00;101670.69;5038946;28;20115;-59
2021/10/19 09:24:37;;;;;;;53.65;30.50;;;;;;;16.08;100.00;101677.50;5040970;28;20041;-59
2021/10/19 09:27:06;;;;;;;53.05;30.30;;;;;;;16.11;100.00;101671.97;5052060;28;20452;-59
2021/10/19 09:29:43;;;;;;;52.90;30.15;;;;;;;16.12;100.00;101667.50;5052788;28;20037;-59
2021/10/19 09:32:12;;;;;;;51.88;30.25;;;;;;;16.15;100.00;101672.66;5053261;28;20144;-63
2021/10/19 09:34:37;;;;;;;55.67;31.25;;;;;;;16.17;100.00;101676.13;5035858;28;20112;-61
2021/10/19 09:37:05;;;;;;;53.17;28.60;;;;;;;16.24;100.00;101668.63;5052692;28;20052;-62
2021/10/19 09:39:36;;;;;;;47.53;27.55;;;;;;;16.22;100.00;101666.91;5052717;28;20021;-62
2021/10/19 09:42:03;;;;;;;43.55;26.63;;;;;;;16.27;100.00;101674.69;5053007;28;20025;-62
2021/10/19 09:44:29;;;;;;;36.75;23.75;;;;;;;16.31;100.00;101676.22;5054202;28;20090;-62
2021/10/19 09:46:54;;;;;;;35.22;22.67;;;;;;;16.34;100.00;101688.56;5052889;28;20064;-61
2021/10/19 09:49:22;;;;;;;37.63;22.05;;;;;;;16.37;100.00;101691.06;5052836;28;20104;-61
2021/10/19 09:51:48;;;;;;;36.88;22.60;;;;;;;16.42;100.00;101678.31;5052501;28;20028;-62
2021/10/19 09:54:19;;;;;;;35.92;20.55;;;;;;;16.51;100.00;101668.91;5053678;28;20024;-61
2021/10/19 09:56:45;;;;;;;42.67;22.88;;;;;;;16.60;100.00;101657.69;5052903;28;20029;-63
2021/10/19 09:59:11;;;;;;;29.83;19.25;;;;;;;16.62;100.00;101665.63;5052799;28;20074;-62
2021/10/19 10:01:37;;;;;;;27.15;18.30;;;;;;;16.69;100.00;101675.03;5052700;28;20420;-61
2021/10/19 10:04:04;;;;;;;25.00;17.40;;;;;;;16.71;100.00;101667.75;5052471;28;20013;-62
2021/10/19 10:06:31;;;;;;;31.80;19.63;;;;;;;16.74;100.00;101664.91;5053209;28;20048;-62
2021/10/19 10:08:58;;;;;;;28.30;18.52;;;;;;;16.73;100.00;101676.56;5052524;28;20544;-61
2021/10/19 10:11:23;;;;;;;28.42;20.00;;;;;;;16.73;100.00;101665.88;5052797;28;20051;-61
2021/10/19 10:14:00;;;;;;;27.77;19.65;;;;;;;16.73;100.00;101673.00;5050455;28;20511;-61
2021/10/19 10:16:26;;;;;;;44.80;24.00;;;;;;;16.70;100.00;101674.03;5050568;28;20116;-60
2021/10/19 10:18:52;;;;;;;30.98;19.58;;;;;;;16.68;100.00;101673.28;5049305;28;20055;-60
2021/10/19 10:21:20;;;;;;;27.83;18.42;;;;;;;16.69;100.00;101675.03;5062522;28;20029;-61
2021/10/19 10:23:46;;;;;;;26.60;19.60;;;;;;;16.68;100.00;101678.63;5057736;28;20526;-60
2021/10/19 10:26:26;;;;;;;27.25;19.67;;;;;;;16.71;100.00;101676.66;5070040;28;20029;-61
2021/10/19 10:28:52;;;;;;;29.58;19.17;;;;;;;16.74;100.00;101688.09;5062454;28;20107;-61
2021/10/19 10:31:21;;;;;;;31.15;20.73;;;;;;;16.71;100.00;101678.44;5054983;28;20044;-62
2021/10/19 10:33:59;;;;;;;32.47;20.63;;;;;;;16.70;100.00;101672.25;5057889;28;20087;-62
2021/10/19 10:36:36;;;;;;;29.65;19.27;;;;;;;16.79;100.00;101680.69;5060644;28;20465;-61
2021/10/19 10:39:04;;;;;;;28.98;20.92;;;;;;;16.77;100.00;101678.09;5062296;28;20039;-63
2021/10/19 10:41:37;;;;;;;35.05;21.52;;;;;;;16.87;100.00;101686.47;5062379;28;20025;-60
2021/10/19 10:44:03;;;;;;;31.67;19.83;;;;;;;16.93;100.00;101672.78;5061216;28;20032;-61
2021/10/19 10:46:29;;;;;;;31.60;19.95;;;;;;;16.91;100.00;101672.00;5052192;28;20017;-62
2021/10/19 10:48:56;;;;;;;26.77;19.00;;;;;;;16.92;100.00;101675.50;5051462;28;20076;-60
2021/10/19 10:51:33;;;;;;;29.90;19.60;;;;;;;16.89;100.00;101676.53;5051305;28;20116;-60
2021/10/19 10:53:59;;;;;;;29.38;19.17;;;;;;;16.88;100.00;101673.00;5052327;28;20064;-60
2021/10/19 10:56:25;;;;;;;25.17;16.95;;;;;;;16.89;100.00;101665.81;5051816;28;20052;-60